Time;durP1;ratioP1;P1;durP2;ratioP2;P2;SDS_P1;SDS_P2;PMS_P1;PMS_P2;Temp;Humidity;BMP_temperature;BMP_pressure;BME280_temperature;BME280_humidity;BME280_pressure;Samples;Min_cycle;Max_cycle;Signal;HPM_P1;HPM_P2
2022/03/18 00:01:54;;;;;;;17.15;5.13;;;5.60;99.90;;;;;;5136867;27;40623;-57
2022/03/18 00:04:22;;;;;;;14.85;3.97;;;5.60;99.90;;;;;;5136633;27;37550;-58
2022/03/18 00:06:49;;;;;;;13.32;4.38;;;5.50;99.90;;;;;;5136853;27;38950;-57
2022/03/18 00:09:17;;;;;;;17.85;4.70;;;5.50;99.90;;;;;;5137765;27;35738;-57
2022/03/18 00:11:44;;;;;;;13.10;4.60;;;5.40;99.90;;;;;;5137321;27;36388;-56
2022/03/18 00:14:11;;;;;;;14.95;4.28;;;5.40;99.90;;;;;;5136026;27;37165;-56
2022/03/18 00:16:40;;;;;;;19.90;5.00;;;5.40;99.90;;;;;;5136741;27;37151;-58
2022/03/18 00:19:07;;;;;;;16.40;4.85;;;5.40;99.90;;;;;;5136109;27;36451;-57
2022/03/18 00:21:35;;;;;;;15.27;5.20;;;5.40;99.90;;;;;;5134693;27;39056;-55
2022/03/18 00:24:03;;;;;;;16.38;4.72;;;5.50;99.90;;;;;;5135074;27;37377;-57
2022/03/18 00:26:30;;;;;;;17.60;4.65;;;5.60;99.90;;;;;;5134064;27;37607;-57
2022/03/18 00:28:58;;;;;;;16.40;3.92;;;5.50;99.90;;;;;;5135444;27;36871;-57
2022/03/18 00:31:26;;;;;;;20.85;6.05;;;5.50;99.90;;;;;;5135088;27;38709;-57
2022/03/18 00:33:55;;;;;;;16.08;4.72;;;5.50;99.90;;;;;;5136458;27;40187;-57
2022/03/18 00:36:22;;;;;;;18.50;4.88;;;5.50;99.90;;;;;;5136708;27;36876;-57
2022/03/18 00:38:50;;;;;;;13.68;4.88;;;5.50;99.90;;;;;;5135705;27;36652;-57
2022/03/18 00:41:18;;;;;;;8.32;4.22;;;5.50;99.90;;;;;;5135716;27;38543;-56
2022/03/18 00:43:45;;;;;;;15.50;5.05;;;5.40;99.90;;;;;;5135317;27;37781;-57
2022/03/18 00:46:13;;;;;;;16.02;5.43;;;5.40;99.90;;;;;;5135133;27;37521;-57
2022/03/18 00:54:11;;;;;;;13.50;5.25;;;5.30;99.90;;;;;;5136613;27;40259;-57
2022/03/18 00:56:38;;;;;;;18.85;5.57;;;5.40;99.90;;;;;;5135812;27;37405;-57
2022/03/18 00:59:06;;;;;;;11.02;5.13;;;5.40;99.90;;;;;;5135241;27;35205;-57
2022/03/18 01:01:34;;;;;;;17.17;5.80;;;5.40;99.90;;;;;;5135722;27;37367;-57
2022/03/18 01:04:01;;;;;;;15.57;5.75;;;5.40;99.90;;;;;;5135221;27;39637;-57
2022/03/18 01:06:30;;;;;;;25.45;6.20;;;5.30;99.90;;;;;;5134905;27;37546;-57
2022/03/18 01:08:57;;;;;;;18.88;5.93;;;5.30;99.90;;;;;;5136353;27;35430;-57
2022/03/18 01:11:24;;;;;;;17.90;5.50;;;5.30;99.90;;;;;;5135587;27;40058;-57
2022/03/18 01:13:52;;;;;;;20.75;7.15;;;5.30;99.90;;;;;;5133101;27;37629;-57
2022/03/18 01:16:19;;;;;;;16.85;5.97;;;5.30;99.90;;;;;;5134411;27;36086;-57
2022/03/18 01:18:46;;;;;;;15.43;5.97;;;5.20;99.90;;;;;;5134216;27;36224;-57
2022/03/18 01:21:14;;;;;;;18.52;5.80;;;5.20;99.90;;;;;;5134239;27;37349;-57
2022/03/18 01:23:42;;;;;;;19.77;6.32;;;5.20;99.90;;;;;;5134847;27;38309;-56
2022/03/18 01:26:10;;;;;;;12.65;5.50;;;5.20;99.90;;;;;;5136220;27;37312;-57
2022/03/18 01:28:37;;;;;;;18.90;5.88;;;5.30;99.90;;;;;;5135307;27;36428;-57
2022/03/18 01:31:04;;;;;;;15.90;5.72;;;5.30;99.90;;;;;;5135490;27;36294;-57
2022/03/18 01:33:33;;;;;;;17.13;5.88;;;5.20;99.90;;;;;;5135931;27;37884;-57
2022/03/18 01:36:01;;;;;;;16.85;5.82;;;5.40;99.90;;;;;;5134782;27;38967;-57
2022/03/18 01:38:28;;;;;;;13.68;4.53;;;5.30;99.90;;;;;;5134265;27;36091;-57
2022/03/18 01:40:57;;;;;;;12.43;5.07;;;5.30;99.90;;;;;;5133657;27;36318;-57
2022/03/18 01:43:24;;;;;;;11.45;4.95;;;5.40;99.90;;;;;;5134663;27;37665;-56
2022/03/18 01:45:51;;;;;;;12.65;4.82;;;5.40;99.90;;;;;;5135075;27;38625;-56
2022/03/18 01:48:19;;;;;;;13.88;4.60;;;5.40;99.90;;;;;;5134969;27;36439;-57
2022/03/18 01:50:47;;;;;;;11.07;4.88;;;5.40;99.90;;;;;;5134624;27;37423;-57
2022/03/18 01:53:14;;;;;;;19.88;6.25;;;5.30;99.90;;;;;;5133737;27;36476;-57
2022/03/18 01:55:41;;;;;;;14.48;5.93;;;5.40;99.90;;;;;;5135560;27;38498;-57
2022/03/18 01:58:10;;;;;;;16.42;5.68;;;5.40;99.90;;;;;;5135058;27;35238;-57
2022/03/18 02:00:37;;;;;;;17.20;5.78;;;5.30;99.90;;;;;;5133353;27;38353;-57
2022/03/18 02:03:05;;;;;;;18.50;5.63;;;5.30;99.90;;;;;;5136677;27;37832;-57
2022/03/18 02:05:32;;;;;;;16.00;6.13;;;5.30;99.90;;;;;;5135012;27;37180;-57
2022/03/18 02:08:01;;;;;;;13.82;5.50;;;5.30;99.90;;;;;;5135116;27;37061;-57
2022/03/18 02:10:28;;;;;;;16.73;6.18;;;5.30;99.90;;;;;;5134246;27;38084;-56
2022/03/18 02:12:56;;;;;;;13.57;5.53;;;5.30;99.90;;;;;;5133860;27;37697;-57
2022/03/18 02:15:24;;;;;;;17.73;5.10;;;5.30;99.90;;;;;;5132600;27;38401;-57
2022/03/18 02:17:54;;;;;;;12.80;5.55;;;5.30;99.90;;;;;;5134911;27;36383;-57
2022/03/18 02:20:22;;;;;;;12.30;5.95;;;5.30;99.90;;;;;;5134983;27;36619;-57
2022/03/18 02:22:51;;;;;;;13.80;5.63;;;5.30;99.90;;;;;;5135792;27;37375;-57
2022/03/18 02:25:18;;;;;;;12.25;5.60;;;5.30;99.90;;;;;;5132494;27;36185;-57
2022/03/18 02:27:55;;;;;;;13.77;6.00;;;5.30;99.90;;;;;;5134191;27;36450;-57
2022/03/18 02:30:23;;;;;;;15.75;5.35;;;5.30;99.90;;;;;;5133898;27;37680;-56
2022/03/18 02:32:51;;;;;;;18.98;5.40;;;5.30;99.90;;;;;;5133230;27;38442;-57
2022/03/18 02:35:18;;;;;;;11.23;5.72;;;5.30;99.90;;;;;;5132974;27;37240;-57
2022/03/18 02:37:45;;;;;;;19.92;5.55;;;5.30;99.90;;;;;;5130262;27;36653;-57
2022/03/18 02:40:15;;;;;;;15.18;5.28;;;5.30;99.90;;;;;;5133269;27;36253;-55
2022/03/18 02:42:43;;;;;;;16.65;5.82;;;5.30;99.90;;;;;;5131928;27;37519;-57
2022/03/18 02:45:12;;;;;;;10.85;5.00;;;5.30;99.90;;;;;;5133538;27;37593;-57
2022/03/18 02:47:39;;;;;;;12.95;5.35;;;5.20;99.90;;;;;;5134466;27;37462;-57
2022/03/18 02:50:07;;;;;;;16.15;5.60;;;5.30;99.90;;;;;;5133376;27;36209;-57
2022/03/18 02:52:35;;;;;;;14.73;5.78;;;5.30;99.90;;;;;;5137091;27;37705;-57
2022/03/18 02:55:02;;;;;;;11.05;4.93;;;5.20;99.80;;;;;;5136459;27;37601;-57
2022/03/18 02:57:32;;;;;;;12.77;4.90;;;5.20;99.90;;;;;;5137717;27;37229;-57
2022/03/18 02:59:59;;;;;;;14.88;5.40;;;5.30;99.90;;;;;;5136753;27;37494;-57
2022/03/18 03:02:27;;;;;;;11.07;4.93;;;5.20;99.90;;;;;;5136494;27;38662;-57
2022/03/18 03:10:24;;;;;;;12.13;5.32;;;5.20;99.90;;;;;;5138309;27;38291;-57
2022/03/18 03:12:53;;;;;;;12.57;5.18;;;5.20;99.90;;;;;;5135996;27;37936;-57
2022/03/18 03:15:20;;;;;;;12.85;5.03;;;5.20;99.90;;;;;;5136657;27;37401;-57
2022/03/18 03:17:47;;;;;;;12.40;4.93;;;5.30;99.90;;;;;;5136773;27;37212;-57
2022/03/18 03:20:15;;;;;;;12.52;5.20;;;5.30;99.90;;;;;;5137866;27;36929;-57
2022/03/18 03:22:43;;;;;;;9.38;4.85;;;5.30;99.90;;;;;;5137332;27;38950;-57
2022/03/18 03:25:10;;;;;;;13.43;5.20;;;5.30;99.90;;;;;;5137055;27;37197;-57
2022/03/18 03:27:37;;;;;;;12.20;5.10;;;5.30;99.90;;;;;;5137275;27;39544;-57
2022/03/18 03:30:08;;;;;;;11.50;4.93;;;5.30;99.80;;;;;;5137650;27;37930;-57
2022/03/18 03:32:35;;;;;;;17.98;5.60;;;5.30;99.80;;;;;;5137820;27;36607;-57
2022/03/18 03:35:03;;;;;;;12.13;4.68;;;5.40;99.80;;;;;;5137728;27;36811;-57
2022/03/18 03:37:30;;;;;;;12.52;5.03;;;5.40;99.80;;;;;;5137446;27;37236;-57
2022/03/18 03:39:57;;;;;;;12.75;4.85;;;5.40;99.90;;;;;;5137478;27;36624;-57
2022/03/18 03:42:25;;;;;;;13.15;5.90;;;5.40;99.90;;;;;;5136395;27;38183;-57
2022/03/18 03:44:52;;;;;;;14.25;5.10;;;5.40;99.90;;;;;;5136318;27;38751;-57
2022/03/18 03:47:21;;;;;;;12.18;5.00;;;5.40;99.90;;;;;;5137599;27;35320;-57
2022/03/18 03:49:48;;;;;;;9.88;4.80;;;5.50;99.90;;;;;;5136803;27;36393;-57
2022/03/18 03:52:16;;;;;;;15.70;5.65;;;5.50;99.90;;;;;;5137285;27;37461;-57
2022/03/18 03:54:43;;;;;;;16.02;5.50;;;5.60;99.90;;;;;;5135949;27;37862;-57
2022/03/18 03:57:11;;;;;;;14.90;5.90;;;5.60;99.90;;;;;;5136401;27;36493;-57
2022/03/18 03:59:38;;;;;;;18.17;5.82;;;5.60;99.90;;;;;;5134893;27;37519;-57
2022/03/18 04:02:08;;;;;;;12.75;5.80;;;5.50;99.90;;;;;;5135287;27;37995;-57
2022/03/18 04:04:37;;;;;;;15.77;5.55;;;5.50;99.90;;;;;;5134781;27;37451;-57
2022/03/18 04:07:04;;;;;;;14.23;5.40;;;5.60;99.90;;;;;;5134358;27;36638;-57
2022/03/18 04:09:32;;;;;;;21.80;6.40;;;5.60;99.90;;;;;;5135767;27;38899;-57
2022/03/18 04:12:00;;;;;;;14.88;5.50;;;5.70;99.90;;;;;;5135365;27;37523;-57
2022/03/18 04:14:27;;;;;;;18.50;6.05;;;5.80;99.90;;;;;;5136359;27;36199;-57
2022/03/18 04:16:54;;;;;;;13.13;5.35;;;5.80;99.90;;;;;;5135801;27;36589;-57
2022/03/18 04:19:22;;;;;;;13.20;5.15;;;5.90;99.90;;;;;;5136634;27;39179;-57
2022/03/18 04:21:50;;;;;;;12.15;5.40;;;5.90;99.90;;;;;;5135479;27;37957;-57
2022/03/18 04:24:18;;;;;;;17.77;6.63;;;5.90;99.90;;;;;;5135284;27;35411;-57
2022/03/18 04:26:45;;;;;;;13.73;5.35;;;5.90;99.90;;;;;;5135015;27;37506;-57
2022/03/18 04:29:13;;;;;;;14.20;5.15;;;6.00;99.90;;;;;;5135761;27;37667;-57
2022/03/18 04:31:41;;;;;;;11.27;5.68;;;6.00;99.90;;;;;;5136244;27;38716;-57
2022/03/18 04:34:08;;;;;;;11.80;6.30;;;6.00;99.90;;;;;;5136941;27;38088;-57
2022/03/18 04:36:35;;;;;;;14.38;5.95;;;6.20;99.90;;;;;;5135978;27;37535;-57
2022/03/18 04:39:04;;;;;;;10.63;5.57;;;6.10;99.90;;;;;;5137443;27;37268;-56
2022/03/18 04:41:32;;;;;;;11.30;5.88;;;6.20;99.90;;;;;;5136023;27;36534;-56
2022/03/18 04:44:01;;;;;;;13.60;5.50;;;6.20;99.90;;;;;;5135905;27;36817;-57
2022/03/18 04:46:31;;;;;;;13.05;5.95;;;6.20;99.90;;;;;;5136669;27;36235;-57
2022/03/18 04:48:59;;;;;;;16.35;5.60;;;6.30;99.90;;;;;;5134980;27;37311;-58
2022/03/18 04:51:26;;;;;;;12.85;5.60;;;6.20;99.90;;;;;;5136105;27;38545;-57
2022/03/18 04:53:53;;;;;;;11.40;5.82;;;6.30;99.90;;;;;;5135425;27;36423;-57
2022/03/18 04:59:07;;;;;;;13.65;5.85;;;6.30;99.90;;;;;;5134276;27;38575;-57
2022/03/18 05:01:34;;;;;;;18.33;6.30;;;6.20;99.90;;;;;;5135547;27;37680;-57
2022/03/18 05:04:01;;;;;;;16.70;6.13;;;6.20;99.90;;;;;;5136544;27;38732;-57
2022/03/18 05:06:29;;;;;;;10.98;5.55;;;6.10;99.90;;;;;;5134393;27;36276;-57
2022/03/18 05:08:56;;;;;;;14.65;5.63;;;6.10;99.80;;;;;;5133109;27;36428;-56
2022/03/18 05:11:25;;;;;;;15.80;6.53;;;6.00;99.70;;;;;;5134780;27;37524;-56
2022/03/18 05:13:52;;;;;;;15.95;6.22;;;5.90;99.60;;;;;;5132432;27;38006;-57
2022/03/18 05:16:19;;;;;;;14.82;6.22;;;5.90;99.60;;;;;;5117472;27;38256;-57
2022/03/18 05:18:47;;;;;;;12.82;6.05;;;5.90;99.50;;;;;;5118613;27;37365;-57
2022/03/18 05:21:14;;;;;;;14.45;6.10;;;5.80;99.40;;;;;;5115793;27;37593;-57
2022/03/18 05:23:41;;;;;;;15.07;5.40;;;5.80;99.40;;;;;;5116691;27;37181;-57
2022/03/18 05:26:09;;;;;;;16.17;6.05;;;5.70;99.40;;;;;;5117605;27;35797;-57
2022/03/18 05:28:37;;;;;;;13.68;5.93;;;5.60;99.30;;;;;;5117044;27;37671;-57
2022/03/18 05:31:05;;;;;;;11.35;6.03;;;5.70;99.20;;;;;;5117311;27;37300;-57
2022/03/18 05:33:32;;;;;;;16.58;6.38;;;5.60;99.20;;;;;;5117988;27;36314;-57
2022/03/18 05:36:00;;;;;;;16.05;6.45;;;5.60;99.40;;;;;;5118684;27;36571;-57
2022/03/18 05:38:27;;;;;;;14.18;5.70;;;5.60;99.50;;;;;;5117952;27;37503;-57
2022/03/18 05:40:54;;;;;;;17.23;6.82;;;5.50;99.40;;;;;;5115638;27;36689;-57
2022/03/18 05:43:22;;;;;;;12.13;6.05;;;5.50;99.40;;;;;;5117045;27;37858;-57
2022/03/18 05:45:50;;;;;;;14.65;6.38;;;5.50;99.40;;;;;;5116704;27;36174;-57
2022/03/18 05:48:18;;;;;;;13.00;5.93;;;5.50;99.40;;;;;;5117293;27;38118;-58
2022/03/18 05:50:45;;;;;;;13.18;5.85;;;5.40;99.40;;;;;;5116991;27;36510;-57
2022/03/18 05:53:13;;;;;;;14.77;5.97;;;5.40;99.50;;;;;;5117223;27;38333;-57
2022/03/18 05:58:25;;;;;;;10.32;5.78;;;5.50;99.40;;;;;;5116819;27;38937;-57
2022/03/18 06:00:54;;;;;;;12.57;5.85;;;5.60;99.30;;;;;;5115747;27;38904;-57
2022/03/18 06:03:22;;;;;;;12.48;5.75;;;5.80;99.20;;;;;;5118077;27;37290;-56
2022/03/18 06:05:49;;;;;;;12.52;6.15;;;5.80;99.00;;;;;;5117024;27;36388;-56
2022/03/18 06:13:46;;;;;;;14.32;6.13;;;5.90;98.90;;;;;;5118730;27;40189;-56
2022/03/18 06:16:15;;;;;;;10.98;5.65;;;6.00;99.10;;;;;;5134079;27;35950;-57
2022/03/18 06:18:42;;;;;;;13.35;5.80;;;6.10;98.90;;;;;;5135337;27;37547;-57
2022/03/18 06:21:10;;;;;;;10.32;5.72;;;6.20;98.80;;;;;;5133576;27;39043;-57
2022/03/18 06:23:37;;;;;;;13.43;6.28;;;6.40;98.60;;;;;;5132433;27;38256;-57
2022/03/18 06:26:05;;;;;;;10.77;5.65;;;6.40;98.50;;;;;;5132234;27;37782;-57
2022/03/18 06:28:33;;;;;;;18.00;6.72;;;6.40;98.40;;;;;;5131364;27;36363;-56
2022/03/18 06:31:01;;;;;;;14.45;6.20;;;6.60;98.50;;;;;;5134289;27;38826;-57
2022/03/18 06:33:30;;;;;;;13.30;6.00;;;6.60;98.40;;;;;;5132657;27;36754;-57
2022/03/18 06:35:57;;;;;;;15.15;6.63;;;6.70;98.40;;;;;;5134074;27;35324;-57
2022/03/18 06:38:24;;;;;;;14.68;7.15;;;6.80;98.70;;;;;;5134411;27;38544;-57
2022/03/18 06:40:52;;;;;;;11.95;6.50;;;6.90;98.70;;;;;;5135296;27;38694;-57
2022/03/18 06:43:19;;;;;;;13.95;6.35;;;7.00;98.60;;;;;;5133744;27;37845;-57
2022/03/18 06:45:46;;;;;;;14.25;6.88;;;7.20;98.40;;;;;;5134524;27;36766;-56
2022/03/18 06:48:14;;;;;;;15.18;6.40;;;7.30;98.10;;;;;;5134228;27;36298;-56
2022/03/18 06:50:42;;;;;;;13.18;6.68;;;7.40;98.00;;;;;;5133409;27;37763;-57
2022/03/18 06:53:10;;;;;;;16.50;7.10;;;7.50;97.70;;;;;;5134041;27;36639;-56
2022/03/18 06:55:37;;;;;;;11.90;6.68;;;7.60;97.50;;;;;;5134542;27;36528;-57
2022/03/18 06:58:05;;;;;;;12.55;7.03;;;7.70;97.40;;;;;;5133115;27;36348;-56
2022/03/18 07:00:32;;;;;;;19.00;7.38;;;7.70;97.40;;;;;;5133719;27;39370;-57
2022/03/18 07:03:00;;;;;;;16.65;7.60;;;7.70;97.40;;;;;;5134311;27;37548;-57
2022/03/18 07:05:27;;;;;;;14.30;7.05;;;7.80;97.40;;;;;;5134159;27;36403;-57
2022/03/18 07:07:56;;;;;;;24.02;7.07;;;7.90;97.50;;;;;;5132878;27;37226;-57
2022/03/18 07:10:23;;;;;;;16.90;6.82;;;8.00;97.50;;;;;;5133057;27;36486;-56
2022/03/18 07:12:51;;;;;;;12.30;6.93;;;8.10;97.40;;;;;;5132113;27;37953;-57
2022/03/18 07:15:18;;;;;;;12.30;6.18;;;8.20;97.60;;;;;;5134664;27;37708;-57
2022/03/18 07:17:59;;;;;;;18.13;8.07;;;8.30;97.50;;;;;;5134047;27;37349;-57
2022/03/18 07:20:28;;;;;;;12.77;7.03;;;8.40;97.60;;;;;;5133365;27;37673;-57
2022/03/18 07:23:06;;;;;;;11.55;6.20;;;8.70;97.70;;;;;;5134760;27;37357;-58
2022/03/18 07:25:34;;;;;;;15.23;7.22;;;9.00;97.10;;;;;;5135787;27;35377;-57
2022/03/18 07:28:02;;;;;;;19.38;8.10;;;9.40;96.90;;;;;;5134980;27;38117;-57
2022/03/18 07:30:30;;;;;;;17.38;7.30;;;9.80;96.40;;;;;;5136204;27;37162;-57
2022/03/18 07:32:57;;;;;;;13.85;7.45;;;10.00;95.80;;;;;;5135625;27;37054;-57
2022/03/18 07:35:24;;;;;;;15.95;7.80;;;10.20;95.30;;;;;;5135843;27;35366;-57
2022/03/18 07:37:52;;;;;;;12.73;7.50;;;10.20;95.00;;;;;;5136426;27;37406;-57
2022/03/18 07:40:21;;;;;;;20.60;8.38;;;10.40;94.50;;;;;;5137821;27;38750;-57
2022/03/18 07:42:49;;;;;;;17.63;8.07;;;10.60;93.80;;;;;;5137595;27;37790;-57
2022/03/18 07:45:19;;;;;;;18.27;8.07;;;10.70;93.50;;;;;;5139085;27;37398;-57
2022/03/18 07:47:49;;;;;;;15.85;7.10;;;10.70;93.30;;;;;;5139833;27;37553;-57
2022/03/18 07:50:20;;;;;;;20.35;8.32;;;10.60;93.50;;;;;;5139065;27;37767;-57
2022/03/18 07:52:49;;;;;;;16.00;6.72;;;10.50;94.00;;;;;;5138272;27;37431;-57
2022/03/18 07:55:20;;;;;;;19.83;7.90;;;10.50;94.20;;;;;;5138264;27;38345;-57
2022/03/18 07:57:48;;;;;;;13.85;7.20;;;10.50;94.60;;;;;;5129911;27;38435;-57
2022/03/18 08:00:16;;;;;;;24.48;9.02;;;10.50;94.90;;;;;;5131966;27;36300;-57
2022/03/18 08:02:45;;;;;;;19.45;7.20;;;10.40;95.40;;;;;;5133751;27;37102;-57
2022/03/18 08:05:15;;;;;;;14.63;6.88;;;10.50;95.60;;;;;;5134713;27;35482;-57
2022/03/18 08:07:44;;;;;;;18.17;8.02;;;10.60;95.90;;;;;;5131767;27;37005;-58
2022/03/18 08:10:12;;;;;;;18.63;8.02;;;10.80;95.90;;;;;;5135055;27;38238;-57
2022/03/18 08:12:42;;;;;;;16.80;7.13;;;11.10;95.70;;;;;;5134036;27;37410;-57
2022/03/18 08:15:11;;;;;;;15.05;7.57;;;11.40;95.70;;;;;;5134307;27;37061;-56
2022/03/18 08:17:39;;;;;;;16.58;7.30;;;11.70;95.60;;;;;;5134075;27;37130;-57
2022/03/18 08:20:09;;;;;;;15.13;6.70;;;11.90;95.70;;;;;;5134707;27;37880;-57
2022/03/18 08:22:37;;;;;;;18.10;6.82;;;12.20;95.80;;;;;;5134664;27;38207;-57
2022/03/18 08:25:06;;;;;;;16.10;6.57;;;12.40;95.60;;;;;;5136403;27;37804;-58
2022/03/18 08:27:33;;;;;;;18.15;6.55;;;12.60;95.60;;;;;;5135238;27;37318;-57
2022/03/18 08:30:02;;;;;;;16.20;7.28;;;12.70;95.50;;;;;;5135144;27;38548;-58
2022/03/18 08:32:31;;;;;;;20.95;7.65;;;12.90;95.00;;;;;;5134794;27;37130;-57
2022/03/18 08:34:59;;;;;;;18.98;7.25;;;13.20;94.40;;;;;;5136417;27;36397;-57
2022/03/18 08:40:09;;;;;;;17.65;7.30;;;13.70;93.10;;;;;;5118334;27;39503;-57
2022/03/18 08:42:37;;;;;;;16.48;6.25;;;13.90;92.60;;;;;;5133949;27;39230;-57
2022/03/18 08:45:06;;;;;;;22.08;6.38;;;14.00;92.20;;;;;;5135246;27;37075;-57
2022/03/18 08:47:33;;;;;;;20.15;6.75;;;14.30;91.40;;;;;;5135072;27;37771;-57
2022/03/18 08:50:01;;;;;;;21.40;6.05;;;14.60;90.70;;;;;;5135450;27;38100;-58
2022/03/18 08:52:28;;;;;;;19.58;6.15;;;15.00;89.70;;;;;;5135256;27;36040;-57
2022/03/18 08:54:55;;;;;;;17.08;6.20;;;15.10;87.90;;;;;;5133738;27;37567;-58
2022/03/18 08:57:23;;;;;;;18.58;5.72;;;15.20;86.30;;;;;;5134993;27;39270;-57
2022/03/18 08:59:50;;;;;;;17.02;5.43;;;15.30;84.60;;;;;;5135748;27;37849;-57
2022/03/18 09:02:19;;;;;;;16.52;5.78;;;15.40;83.20;;;;;;5133142;27;38244;-57
2022/03/18 09:04:48;;;;;;;16.77;5.80;;;15.60;82.00;;;;;;5134991;27;36435;-57
2022/03/18 09:07:15;;;;;;;15.05;6.32;;;15.80;82.00;;;;;;5131804;27;38596;-57
2022/03/18 09:09:43;;;;;;;18.45;5.60;;;16.00;80.60;;;;;;5133967;27;37886;-58
2022/03/18 09:12:10;;;;;;;19.17;5.53;;;16.20;79.10;;;;;;5134893;27;36108;-57
2022/03/18 09:14:38;;;;;;;19.65;5.55;;;16.50;76.80;;;;;;5136550;27;36820;-58
2022/03/18 09:17:05;;;;;;;17.58;6.15;;;16.90;75.80;;;;;;5133424;27;39135;-57
2022/03/18 09:19:37;;;;;;;14.73;5.75;;;17.20;73.30;;;;;;5133879;27;37884;-58
2022/03/18 09:22:06;;;;;;;16.35;5.47;;;17.50;70.90;;;;;;5134243;27;36343;-58
2022/03/18 09:24:34;;;;;;;14.48;5.40;;;17.70;69.00;;;;;;5135087;27;37530;-57
2022/03/18 09:27:02;;;;;;;21.60;5.30;;;18.00;67.90;;;;;;5134807;27;36615;-58
2022/03/18 09:29:29;;;;;;;17.33;6.10;;;18.20;67.20;;;;;;5134737;27;37536;-58
2022/03/18 09:31:57;;;;;;;17.20;5.03;;;18.20;67.00;;;;;;5135257;27;37205;-58
2022/03/18 09:34:25;;;;;;;15.40;5.78;;;18.20;67.30;;;;;;5132500;27;36329;-58
2022/03/18 09:36:55;;;;;;;17.52;5.95;;;18.10;66.90;;;;;;5133159;27;37600;-58
2022/03/18 09:39:26;;;;;;;22.88;6.95;;;17.90;67.70;;;;;;5134632;27;39861;-58
2022/03/18 09:41:55;;;;;;;19.55;5.60;;;17.90;69.30;;;;;;5138986;27;37555;-58
2022/03/18 09:44:22;;;;;;;22.70;5.60;;;17.80;70.10;;;;;;5142098;27;35701;-58
2022/03/18 09:46:52;;;;;;;16.77;6.05;;;17.80;69.20;;;;;;5141619;27;38180;-58
2022/03/18 09:49:22;;;;;;;21.13;6.13;;;17.80;67.20;;;;;;5143884;27;38327;-55
2022/03/18 09:51:49;;;;;;;19.33;5.40;;;17.90;66.00;;;;;;5144615;27;36380;-55
2022/03/18 09:54:19;;;;;;;17.92;5.88;;;18.10;65.10;;;;;;5143712;27;36407;-55
2022/03/18 09:56:48;;;;;;;16.85;6.43;;;18.40;63.60;;;;;;5143507;27;36514;-58
2022/03/18 09:59:16;;;;;;;17.95;5.57;;;18.80;63.00;;;;;;5141978;27;37814;-58
2022/03/18 10:01:43;;;;;;;19.60;6.03;;;19.00;60.60;;;;;;5140445;27;38366;-57
2022/03/18 10:04:12;;;;;;;15.77;5.28;;;19.30;59.60;;;;;;5141678;27;36089;-56
2022/03/18 10:06:42;;;;;;;19.00;6.38;;;19.50;58.40;;;;;;5141835;27;37374;-56
2022/03/18 10:09:10;;;;;;;15.68;6.03;;;19.80;56.50;;;;;;5141496;27;37683;-57
2022/03/18 10:11:42;;;;;;;17.20;6.20;;;20.00;55.80;;;;;;5141352;27;37933;-57
2022/03/18 10:14:14;;;;;;;15.80;6.20;;;20.30;54.80;;;;;;5141110;27;36925;-56
2022/03/18 10:16:42;;;;;;;23.50;6.70;;;20.40;54.60;;;;;;5142552;27;38672;-56
2022/03/18 10:19:12;;;;;;;18.60;6.03;;;20.20;55.00;;;;;;5141972;27;37726;-57
2022/03/18 10:21:53;;;;;;;19.17;5.63;;;19.90;56.00;;;;;;5141080;27;36323;-57
2022/03/18 10:24:27;;;;;;;12.77;5.00;;;19.50;57.60;;;;;;5141688;27;36179;-57
2022/03/18 10:27:10;;;;;;;16.25;5.50;;;19.30;57.90;;;;;;5138374;27;37391;-57
2022/03/18 10:29:41;;;;;;;19.15;5.82;;;19.10;57.20;;;;;;5139624;27;37555;-57
2022/03/18 10:32:09;;;;;;;20.48;5.78;;;19.10;58.50;;;;;;5137736;27;37881;-57
2022/03/18 10:37:23;;;;;;;15.32;5.43;;;19.20;58.20;;;;;;5139393;27;38096;-57
2022/03/18 10:39:51;;;;;;;21.58;5.60;;;19.30;57.40;;;;;;5138452;27;36632;-57
2022/03/18 10:42:21;;;;;;;20.42;5.38;;;19.50;57.20;;;;;;5139490;27;38589;-57
2022/03/18 10:44:51;;;;;;;17.02;5.82;;;19.60;55.10;;;;;;5141240;27;37004;-57
2022/03/18 10:47:30;;;;;;;19.38;5.70;;;19.80;55.00;;;;;;5139120;27;37695;-57
2022/03/18 10:50:24;;;;;;;21.13;6.03;;;20.10;54.60;;;;;;5140750;27;38344;-57
2022/03/18 10:53:06;;;;;;;19.05;6.03;;;20.40;53.40;;;;;;5141024;27;38030;-56
2022/03/18 10:55:36;;;;;;;21.77;6.22;;;20.60;53.00;;;;;;5140018;27;36492;-57
2022/03/18 10:58:08;;;;;;;20.17;6.32;;;20.60;53.60;;;;;;5140366;27;38157;-56
2022/03/18 11:00:37;;;;;;;18.05;6.57;;;20.50;54.40;;;;;;5140092;27;38379;-57
2022/03/18 11:03:06;;;;;;;21.92;5.63;;;20.30;54.80;;;;;;5140934;27;36322;-56
2022/03/18 11:05:35;;;;;;;17.52;5.60;;;20.10;56.00;;;;;;5140999;27;35588;-56
2022/03/18 11:08:04;;;;;;;18.75;5.68;;;19.80;55.60;;;;;;5139148;27;38008;-57
2022/03/18 11:13:24;;;;;;;16.58;5.28;;;19.50;56.30;;;;;;5141689;27;38357;-56
2022/03/18 11:15:53;;;;;;;18.73;5.47;;;19.50;56.40;;;;;;5144582;27;35479;-56
2022/03/18 11:18:20;;;;;;;20.85;6.35;;;19.40;57.40;;;;;;5143529;27;38268;-57
2022/03/18 11:20:51;;;;;;;14.40;5.78;;;19.40;57.30;;;;;;5143256;27;37431;-57
2022/03/18 11:23:20;;;;;;;19.13;5.35;;;19.40;57.50;;;;;;5143624;27;37304;-57
2022/03/18 11:25:49;;;;;;;16.83;4.72;;;19.30;57.60;;;;;;5142638;27;37516;-56
2022/03/18 11:28:18;;;;;;;15.48;4.85;;;19.20;57.40;;;;;;5142657;27;37354;-56
2022/03/18 11:30:48;;;;;;;19.95;6.18;;;19.20;57.50;;;;;;5142745;27;38226;-57
2022/03/18 11:33:21;;;;;;;18.33;5.20;;;19.40;57.10;;;;;;5144450;27;38336;-57
2022/03/18 11:36:12;;;;;;;12.93;5.05;;;19.60;56.20;;;;;;5142696;27;35884;-57
2022/03/18 11:39:02;;;;;;;20.75;6.18;;;19.60;56.90;;;;;;5143397;27;37544;-56
2022/03/18 11:41:50;;;;;;;15.20;4.60;;;19.50;55.90;;;;;;5139778;27;37716;-57
2022/03/18 11:44:46;;;;;;;13.70;4.88;;;19.40;56.50;;;;;;5139555;27;36123;-57
2022/03/18 11:47:47;;;;;;;18.27;5.28;;;19.40;56.70;;;;;;5141371;27;37347;-56
2022/03/18 11:50:48;;;;;;;16.42;5.28;;;19.20;57.40;;;;;;5142433;27;37545;-57
2022/03/18 11:53:46;;;;;;;15.75;5.03;;;19.10;58.20;;;;;;5142604;27;37987;-57
2022/03/18 11:56:14;;;;;;;28.50;6.18;;;19.10;58.80;;;;;;5142881;27;38567;-57
2022/03/18 11:58:41;;;;;;;16.10;4.47;;;18.90;59.20;;;;;;5143189;27;37835;-57
2022/03/18 12:01:39;;;;;;;16.23;4.45;;;18.70;58.80;;;;;;5142292;27;37982;-57
2022/03/18 12:04:09;;;;;;;18.02;4.90;;;18.60;60.40;;;;;;5143279;27;37654;-57
2022/03/18 12:07:08;;;;;;;17.38;4.45;;;18.50;60.60;;;;;;5142944;27;37191;-57
2022/03/18 12:09:58;;;;;;;17.58;4.65;;;18.40;60.60;;;;;;5141081;27;35424;-56
2022/03/18 12:12:28;;;;;;;17.70;5.22;;;18.40;59.90;;;;;;5142682;27;37582;-57
2022/03/18 12:14:58;;;;;;;19.10;5.35;;;18.30;60.00;;;;;;5142608;27;36306;-57
2022/03/18 12:17:25;;;;;;;16.80;5.10;;;18.20;61.50;;;;;;5141377;27;38613;-57
2022/03/18 12:19:59;;;;;;;18.98;4.78;;;18.20;61.90;;;;;;5142495;27;37177;-57
2022/03/18 12:22:30;;;;;;;15.10;4.57;;;18.20;62.10;;;;;;5141446;27;39012;-57
2022/03/18 12:24:58;;;;;;;15.45;5.45;;;18.00;61.20;;;;;;5141679;27;37810;-57
2022/03/18 12:27:29;;;;;;;18.10;5.22;;;17.80;61.40;;;;;;5142394;27;36376;-57
2022/03/18 12:29:58;;;;;;;20.73;4.95;;;17.60;63.50;;;;;;5141353;27;35478;-57
2022/03/18 12:32:26;;;;;;;15.55;4.70;;;17.40;63.00;;;;;;5142234;27;38165;-57
2022/03/18 12:34:57;;;;;;;21.65;5.03;;;17.20;64.00;;;;;;5140871;27;38640;-57
2022/03/18 12:37:31;;;;;;;17.48;4.95;;;17.00;65.40;;;;;;5141589;27;37740;-57
2022/03/18 12:40:03;;;;;;;21.77;4.75;;;16.90;65.60;;;;;;5141649;27;36401;-57
2022/03/18 12:42:30;;;;;;;16.10;5.38;;;16.80;66.40;;;;;;5141733;27;38416;-57
2022/03/18 12:44:59;;;;;;;15.38;4.13;;;16.70;67.90;;;;;;5142954;27;37918;-57
2022/03/18 12:47:30;;;;;;;18.30;4.47;;;16.70;69.20;;;;;;5142249;27;36786;-57
2022/03/18 12:50:00;;;;;;;17.52;4.53;;;16.60;69.70;;;;;;5141859;27;36716;-57
2022/03/18 12:52:27;;;;;;;23.02;5.65;;;16.60;70.60;;;;;;5142828;27;37614;-57
2022/03/18 12:55:07;;;;;;;20.30;5.38;;;16.60;70.80;;;;;;5141997;27;38746;-56
2022/03/18 12:57:35;;;;;;;21.83;5.38;;;16.50;72.10;;;;;;5141115;27;36085;-57
2022/03/18 13:00:04;;;;;;;17.80;4.85;;;16.40;72.20;;;;;;5141808;27;35538;-57
2022/03/18 13:02:31;;;;;;;19.38;4.80;;;16.30;72.40;;;;;;5141952;27;37833;-57
2022/03/18 13:05:00;;;;;;;17.65;4.45;;;16.30;73.80;;;;;;5141985;27;36953;-57
2022/03/18 13:07:29;;;;;;;16.75;4.57;;;16.20;73.70;;;;;;5140710;27;37652;-57
2022/03/18 13:09:57;;;;;;;16.73;4.15;;;16.10;73.70;;;;;;5141719;27;37264;-57
2022/03/18 13:12:25;;;;;;;23.98;5.03;;;15.90;74.60;;;;;;5140787;27;37896;-57
2022/03/18 13:14:55;;;;;;;23.10;5.32;;;15.80;74.60;;;;;;5141495;27;38550;-57
2022/03/18 13:17:23;;;;;;;15.95;4.82;;;15.70;75.80;;;;;;5140322;27;36289;-57
2022/03/18 13:19:53;;;;;;;14.85;4.03;;;15.70;75.80;;;;;;5141484;27;35264;-57
2022/03/18 13:22:23;;;;;;;19.88;5.15;;;15.60;76.20;;;;;;5140928;27;37696;-57
2022/03/18 13:24:53;;;;;;;20.52;4.65;;;15.50;76.60;;;;;;5140720;27;36762;-57